sensor_id;sensor_type;location;lat;lon;timestamp;pressure;altitude;pressure_sealevel;temperature;humidity
73952;BME280;62304;47.662;18.324;2023-04-03T00:02:52;100389.47;;;5.13;70.52
73952;BME280;62304;47.662;18.324;2023-04-03T00:05:55;100392.91;;;5.10;70.50
73952;BME280;62304;47.662;18.324;2023-04-03T00:08:58;100387.94;;;5.04;70.68
73952;BME280;62304;47.662;18.324;2023-04-03T00:12:01;100392.47;;;5.00;70.76
73952;BME280;62304;47.662;18.324;2023-04-03T00:15:04;100394.75;;;4.98;70.74
73952;BME280;62304;47.662;18.324;2023-04-03T00:18:07;100401.62;;;4.83;71.19
73952;BME280;62304;47.662;18.324;2023-04-03T00:21:12;100391.62;;;4.79;71.34
73952;BME280;62304;47.662;18.324;2023-04-03T00:24:18;100395.22;;;4.71;71.64
73952;BME280;62304;47.662;18.324;2023-04-03T00:27:20;100399.59;;;4.63;71.83
73952;BME280;62304;47.662;18.324;2023-04-03T00:30:23;100394.94;;;4.64;71.85
73952;BME280;62304;47.662;18.324;2023-04-03T00:33:26;100393.69;;;4.53;72.53
73952;BME280;62304;47.662;18.324;2023-04-03T00:36:29;100395.94;;;4.51;72.40
73952;BME280;62304;47.662;18.324;2023-04-03T00:39:35;100402.59;;;4.41;72.74
73952;BME280;62304;47.662;18.324;2023-04-03T00:42:40;100395.50;;;4.40;73.06
73952;BME280;62304;47.662;18.324;2023-04-03T00:45:48;100397.28;;;4.36;73.44
73952;BME280;62304;47.662;18.324;2023-04-03T00:48:54;100397.63;;;4.35;73.16
73952;BME280;62304;47.662;18.324;2023-04-03T00:51:57;100401.84;;;4.24;74.07
73952;BME280;62304;47.662;18.324;2023-04-03T00:55:06;100393.13;;;4.22;73.91
73952;BME280;62304;47.662;18.324;2023-04-03T00:58:11;100407.03;;;4.17;74.22
73952;BME280;62304;47.662;18.324;2023-04-03T01:01:18;100398.78;;;4.17;74.50
73952;BME280;62304;47.662;18.324;2023-04-03T01:04:42;100408.12;;;4.24;73.94
73952;BME280;62304;47.662;18.324;2023-04-03T01:07:46;100401.69;;;4.20;74.32
73952;BME280;62304;47.662;18.324;2023-04-03T01:10:51;100401.22;;;4.18;73.95
73952;BME280;62304;47.662;18.324;2023-04-03T01:13:54;100404.44;;;4.12;74.49
73952;BME280;62304;47.662;18.324;2023-04-03T01:16:57;100411.06;;;4.11;74.65
73952;BME280;62304;47.662;18.324;2023-04-03T01:23:30;100411.56;;;4.04;74.81
73952;BME280;62304;47.662;18.324;2023-04-03T01:26:35;100416.25;;;4.04;74.83
73952;BME280;62304;47.662;18.324;2023-04-03T01:29:39;100415.28;;;4.00;75.64
73952;BME280;62304;47.662;18.324;2023-04-03T01:32:42;100415.75;;;3.93;76.13
73952;BME280;62304;47.662;18.324;2023-04-03T01:35:47;100414.50;;;3.91;76.36
73952;BME280;62304;47.662;18.324;2023-04-03T01:38:52;100408.66;;;3.92;76.58
73952;BME280;62304;47.662;18.324;2023-04-03T01:41:55;100416.59;;;3.94;76.50
73952;BME280;62304;47.662;18.324;2023-04-03T01:44:58;100409.00;;;3.99;76.73
73952;BME280;62304;47.662;18.324;2023-04-03T01:48:01;100405.28;;;3.95;76.84
73952;BME280;62304;47.662;18.324;2023-04-03T01:51:04;100407.72;;;3.97;77.30
73952;BME280;62304;47.662;18.324;2023-04-03T01:54:07;100405.75;;;3.97;77.17
73952;BME280;62304;47.662;18.324;2023-04-03T01:57:10;100406.91;;;3.96;77.40
73952;BME280;62304;47.662;18.324;2023-04-03T02:00:13;100411.56;;;3.96;77.69
73952;BME280;62304;47.662;18.324;2023-04-03T02:03:16;100404.31;;;3.91;77.77
73952;BME280;62304;47.662;18.324;2023-04-03T02:06:19;100402.41;;;3.83;78.24
73952;BME280;62304;47.662;18.324;2023-04-03T02:09:22;100403.69;;;3.86;78.15
73952;BME280;62304;47.662;18.324;2023-04-03T02:12:27;100404.03;;;3.76;78.38
73952;BME280;62304;47.662;18.324;2023-04-03T02:15:30;100403.88;;;3.72;78.56
73952;BME280;62304;47.662;18.324;2023-04-03T02:18:33;100411.28;;;3.72;78.77
73952;BME280;62304;47.662;18.324;2023-04-03T02:21:36;100410.16;;;3.64;78.77
73952;BME280;62304;47.662;18.324;2023-04-03T02:24:39;100415.00;;;3.59;78.88
73952;BME280;62304;47.662;18.324;2023-04-03T02:27:42;100409.50;;;3.50;79.30
73952;BME280;62304;47.662;18.324;2023-04-03T02:30:46;100412.88;;;3.47;79.33
73952;BME280;62304;47.662;18.324;2023-04-03T02:33:48;100417.38;;;3.43;79.56
73952;BME280;62304;47.662;18.324;2023-04-03T02:36:52;100415.16;;;3.37;80.01
73952;BME280;62304;47.662;18.324;2023-04-03T02:39:55;100421.41;;;3.37;79.84
73952;BME280;62304;47.662;18.324;2023-04-03T02:42:58;100429.47;;;3.34;79.69
73952;BME280;62304;47.662;18.324;2023-04-03T02:46:01;100424.66;;;3.31;80.10
73952;BME280;62304;47.662;18.324;2023-04-03T02:49:04;100422.69;;;3.31;79.82
73952;BME280;62304;47.662;18.324;2023-04-03T02:52:08;100418.97;;;3.27;79.74
73952;BME280;62304;47.662;18.324;2023-04-03T02:55:13;100425.59;;;3.26;79.81
73952;BME280;62304;47.662;18.324;2023-04-03T02:58:19;100422.22;;;3.29;79.66
73952;BME280;62304;47.662;18.324;2023-04-03T03:01:22;100424.31;;;3.41;79.78
73952;BME280;62304;47.662;18.324;2023-04-03T03:04:25;100432.91;;;3.48;79.25
73952;BME280;62304;47.662;18.324;2023-04-03T03:07:28;100428.56;;;3.55;78.94
73952;BME280;62304;47.662;18.324;2023-04-03T03:10:31;100427.88;;;3.58;78.89
73952;BME280;62304;47.662;18.324;2023-04-03T03:13:34;100427.88;;;3.58;78.81
73952;BME280;62304;47.662;18.324;2023-04-03T03:16:37;100418.53;;;3.59;78.62
73952;BME280;62304;47.662;18.324;2023-04-03T03:19:40;100427.88;;;3.58;78.63
73952;BME280;62304;47.662;18.324;2023-04-03T03:22:43;100431.09;;;3.60;78.52
73952;BME280;62304;47.662;18.324;2023-04-03T03:25:46;100433.22;;;3.55;78.60
73952;BME280;62304;47.662;18.324;2023-04-03T03:28:49;100435.47;;;3.44;78.87
73952;BME280;62304;47.662;18.324;2023-04-03T03:31:52;100435.78;;;3.43;78.91
73952;BME280;62304;47.662;18.324;2023-04-03T03:34:54;100426.09;;;3.37;79.22
73952;BME280;62304;47.662;18.324;2023-04-03T03:37:58;100427.56;;;3.34;79.17
73952;BME280;62304;47.662;18.324;2023-04-03T03:41:01;100437.69;;;3.34;79.24
73952;BME280;62304;47.662;18.324;2023-04-03T03:44:04;100433.97;;;3.30;79.57
73952;BME280;62304;47.662;18.324;2023-04-03T03:47:07;100433.03;;;3.26;79.37
73952;BME280;62304;47.662;18.324;2023-04-03T03:50:13;100429.63;;;3.20;79.61
73952;BME280;62304;47.662;18.324;2023-04-03T03:53:16;100436.22;;;3.19;79.71
73952;BME280;62304;47.662;18.324;2023-04-03T03:56:19;100429.75;;;3.15;80.21
73952;BME280;62304;47.662;18.324;2023-04-03T03:59:23;100431.53;;;3.11;80.32
73952;BME280;62304;47.662;18.324;2023-04-03T04:02:26;100429.59;;;3.12;80.20
73952;BME280;62304;47.662;18.324;2023-04-03T04:05:30;100442.00;;;3.09;80.67
73952;BME280;62304;47.662;18.324;2023-04-03T04:08:33;100442.00;;;3.09;80.56
73952;BME280;62304;47.662;18.324;2023-04-03T04:11:36;100451.97;;;3.05;80.59
73952;BME280;62304;47.662;18.324;2023-04-03T04:14:39;100446.84;;;3.04;80.62
73952;BME280;62304;47.662;18.324;2023-04-03T04:17:44;100442.12;;;3.04;80.64
73952;BME280;62304;47.662;18.324;2023-04-03T04:20:47;100456.50;;;3.01;80.72
73952;BME280;62304;47.662;18.324;2023-04-03T04:23:51;100446.00;;;3.03;80.52
73952;BME280;62304;47.662;18.324;2023-04-03T04:26:54;100450.69;;;3.03;80.46
73952;BME280;62304;47.662;18.324;2023-04-03T04:29:57;100458.09;;;3.02;80.47
73952;BME280;62304;47.662;18.324;2023-04-03T04:33:01;100450.50;;;2.99;80.58
73952;BME280;62304;47.662;18.324;2023-04-03T04:36:05;100451.94;;;2.97;80.59
73952;BME280;62304;47.662;18.324;2023-04-03T04:39:08;100454.50;;;2.93;80.83
73952;BME280;62304;47.662;18.324;2023-04-03T04:42:12;100451.44;;;2.86;81.00
73952;BME280;62304;47.662;18.324;2023-04-03T04:45:18;100458.66;;;2.82;81.26
73952;BME280;62304;47.662;18.324;2023-04-03T04:48:21;100458.19;;;2.80;81.26
73952;BME280;62304;47.662;18.324;2023-04-03T04:51:24;100459.31;;;2.79;81.36
73952;BME280;62304;47.662;18.324;2023-04-03T04:54:27;100452.41;;;2.82;81.24
73952;BME280;62304;47.662;18.324;2023-04-03T04:57:31;100454.63;;;2.80;81.12
73952;BME280;62304;47.662;18.324;2023-04-03T05:00:34;100462.25;;;2.91;80.88
73952;BME280;62304;47.662;18.324;2023-04-03T05:03:37;100457.00;;;3.20;80.05
73952;BME280;62304;47.662;18.324;2023-04-03T05:06:41;100449.03;;;3.75;77.60
73952;BME280;62304;47.662;18.324;2023-04-03T05:09:44;100449.16;;;4.21;75.81
73952;BME280;62304;47.662;18.324;2023-04-03T05:12:48;100445.84;;;4.61;74.12
73952;BME280;62304;47.662;18.324;2023-04-03T05:15:51;100441.38;;;4.86;72.98
73952;BME280;62304;47.662;18.324;2023-04-03T05:18:54;100433.37;;;5.01;71.91
73952;BME280;62304;47.662;18.324;2023-04-03T05:21:57;100438.72;;;5.27;70.58
73952;BME280;62304;47.662;18.324;2023-04-03T05:25:00;100439.25;;;5.49;69.75
73952;BME280;62304;47.662;18.324;2023-04-03T05:28:04;100437.91;;;5.55;68.93
73952;BME280;62304;47.662;18.324;2023-04-03T05:31:07;100433.75;;;5.90;68.38
73952;BME280;62304;47.662;18.324;2023-04-03T05:34:10;100433.81;;;6.02;67.47
73952;BME280;62304;47.662;18.324;2023-04-03T05:37:14;100440.19;;;5.94;67.77
73952;BME280;62304;47.662;18.324;2023-04-03T05:40:17;100435.22;;;5.88;68.11
73952;BME280;62304;47.662;18.324;2023-04-03T05:43:21;100443.28;;;5.72;68.40
73952;BME280;62304;47.662;18.324;2023-04-03T05:46:24;100442.50;;;5.92;67.96
73952;BME280;62304;47.662;18.324;2023-04-03T05:49:28;100447.06;;;6.21;67.11
73952;BME280;62304;47.662;18.324;2023-04-03T05:52:38;100450.19;;;5.99;67.19
73952;BME280;62304;47.662;18.324;2023-04-03T05:55:46;100450.03;;;6.16;66.91
73952;BME280;62304;47.662;18.324;2023-04-03T05:58:50;100462.72;;;6.29;66.46
73952;BME280;62304;47.662;18.324;2023-04-03T06:01:53;100456.28;;;6.25;66.66
73952;BME280;62304;47.662;18.324;2023-04-03T06:04:56;100451.78;;;6.20;66.52
73952;BME280;62304;47.662;18.324;2023-04-03T06:07:59;100457.19;;;5.96;66.69
73952;BME280;62304;47.662;18.324;2023-04-03T06:11:02;100452.31;;;5.81;67.71
73952;BME280;62304;47.662;18.324;2023-04-03T06:14:05;100454.41;;;5.96;67.47
73952;BME280;62304;47.662;18.324;2023-04-03T06:17:08;100454.84;;;5.86;67.33
73952;BME280;62304;47.662;18.324;2023-04-03T06:20:14;100455.81;;;6.02;66.91
73952;BME280;62304;47.662;18.324;2023-04-03T06:23:17;100462.44;;;6.22;66.28
73952;BME280;62304;47.662;18.324;2023-04-03T06:26:20;100464.63;;;6.16;66.24
73952;BME280;62304;47.662;18.324;2023-04-03T06:29:24;100466.75;;;6.31;65.61
73952;BME280;62304;47.662;18.324;2023-04-03T06:32:27;100465.31;;;6.46;65.16
73952;BME280;62304;47.662;18.324;2023-04-03T06:35:30;100465.94;;;6.63;64.64
73952;BME280;62304;47.662;18.324;2023-04-03T06:38:33;100466.09;;;7.03;63.81
73952;BME280;62304;47.662;18.324;2023-04-03T06:41:37;100469.56;;;7.24;62.93
73952;BME280;62304;47.662;18.324;2023-04-03T06:44:39;100467.94;;;7.35;61.85
73952;BME280;62304;47.662;18.324;2023-04-03T06:47:44;100464.88;;;7.76;60.62
73952;BME280;62304;47.662;18.324;2023-04-03T06:50:47;100469.41;;;8.08;60.19
73952;BME280;62304;47.662;18.324;2023-04-03T06:53:58;100461.25;;;8.39;58.65
73952;BME280;62304;47.662;18.324;2023-04-03T06:57:02;100468.91;;;8.73;57.73
73952;BME280;62304;47.662;18.324;2023-04-03T07:00:06;100474.56;;;9.07;57.03
73952;BME280;62304;47.662;18.324;2023-04-03T07:03:09;100480.63;;;8.97;56.14
73952;BME280;62304;47.662;18.324;2023-04-03T07:06:13;100472.53;;;9.54;54.92
73952;BME280;62304;47.662;18.324;2023-04-03T07:09:16;100460.06;;;10.14;54.17
73952;BME280;62304;47.662;18.324;2023-04-03T07:12:19;100478.22;;;10.30;53.43
73952;BME280;62304;47.662;18.324;2023-04-03T07:15:22;100480.09;;;10.64;52.62
73952;BME280;62304;47.662;18.324;2023-04-03T07:18:25;100477.84;;;10.51;52.27
73952;BME280;62304;47.662;18.324;2023-04-03T07:21:29;100483.03;;;10.71;51.75
73952;BME280;62304;47.662;18.324;2023-04-03T07:24:32;100475.88;;;11.15;50.75
73952;BME280;62304;47.662;18.324;2023-04-03T07:27:34;100495.47;;;11.03;48.93
73952;BME280;62304;47.662;18.324;2023-04-03T07:30:48;100486.22;;;11.63;47.44
73952;BME280;62304;47.662;18.324;2023-04-03T07:33:52;100496.44;;;12.11;46.24
73952;BME280;62304;47.662;18.324;2023-04-03T07:36:55;100486.59;;;11.62;45.90
73952;BME280;62304;47.662;18.324;2023-04-03T07:39:58;100494.41;;;11.79;44.68
73952;BME280;62304;47.662;18.324;2023-04-03T07:43:04;100476.97;;;12.11;45.06
73952;BME280;62304;47.662;18.324;2023-04-03T07:46:08;100476.53;;;12.72;43.74
73952;BME280;62304;47.662;18.324;2023-04-03T07:49:12;100471.28;;;12.63;43.91
73952;BME280;62304;47.662;18.324;2023-04-03T07:52:15;100490.41;;;11.54;43.26
73952;BME280;62304;47.662;18.324;2023-04-03T07:55:18;100495.03;;;11.69;44.85
73952;BME280;62304;47.662;18.324;2023-04-03T07:58:21;100492.19;;;11.91;44.13
73952;BME280;62304;47.662;18.324;2023-04-03T08:01:24;100484.94;;;11.83;44.11
73952;BME280;62304;47.662;18.324;2023-04-03T08:04:27;100499.75;;;12.20;43.66
73952;BME280;62304;47.662;18.324;2023-04-03T08:07:30;100498.69;;;11.50;43.88
73952;BME280;62304;47.662;18.324;2023-04-03T08:10:33;100486.84;;;12.05;43.18
73952;BME280;62304;47.662;18.324;2023-04-03T08:13:36;100494.81;;;11.58;43.38
73952;BME280;62304;47.662;18.324;2023-04-03T08:16:39;100502.50;;;11.65;43.81
73952;BME280;62304;47.662;18.324;2023-04-03T08:19:41;100492.41;;;12.05;42.48
73952;BME280;62304;47.662;18.324;2023-04-03T08:22:45;100498.37;;;11.55;42.11
73952;BME280;62304;47.662;18.324;2023-04-03T08:25:47;100508.06;;;11.65;42.60
73952;BME280;62304;47.662;18.324;2023-04-03T08:28:50;100487.03;;;13.22;39.73
73952;BME280;62304;47.662;18.324;2023-04-03T08:31:53;100494.81;;;13.53;38.90
73952;BME280;62304;47.662;18.324;2023-04-03T08:34:56;100500.09;;;14.22;37.75
73952;BME280;62304;47.662;18.324;2023-04-03T08:37:59;100479.78;;;14.25;36.81
73952;BME280;62304;47.662;18.324;2023-04-03T08:41:14;100498.37;;;14.04;37.68
73952;BME280;62304;47.662;18.324;2023-04-03T08:47:51;100497.63;;;12.40;38.82
73952;BME280;62304;47.662;18.324;2023-04-03T08:50:54;100501.50;;;12.98;39.46
73952;BME280;62304;47.662;18.324;2023-04-03T08:54:04;100511.53;;;12.10;40.48
73952;BME280;62304;47.662;18.324;2023-04-03T08:57:13;100513.19;;;11.40;41.51
73952;BME280;62304;47.662;18.324;2023-04-03T09:00:23;100506.94;;;11.69;41.36
73952;BME280;62304;47.662;18.324;2023-04-03T09:03:30;100516.47;;;11.23;41.62
73952;BME280;62304;47.662;18.324;2023-04-03T09:06:34;100519.66;;;11.25;41.55
73952;BME280;62304;47.662;18.324;2023-04-03T09:09:41;100521.16;;;11.90;40.53
73952;BME280;62304;47.662;18.324;2023-04-03T09:12:49;100514.13;;;13.28;38.52
73952;BME280;62304;47.662;18.324;2023-04-03T09:15:54;100512.22;;;13.90;36.58
73952;BME280;62304;47.662;18.324;2023-04-03T09:22:27;100507.38;;;14.41;36.84
73952;BME280;62304;47.662;18.324;2023-04-03T09:25:36;100509.75;;;14.35;35.69
73952;BME280;62304;47.662;18.324;2023-04-03T09:28:40;100509.41;;;14.51;35.69
73952;BME280;62304;47.662;18.324;2023-04-03T09:32:02;100513.88;;;14.76;36.07
73952;BME280;62304;47.662;18.324;2023-04-03T09:38:44;100507.22;;;15.16;33.73
73952;BME280;62304;47.662;18.324;2023-04-03T09:42:01;100511.59;;;15.17;34.22
73952;BME280;62304;47.662;18.324;2023-04-03T09:45:18;100514.00;;;15.29;34.46
73952;BME280;62304;47.662;18.324;2023-04-03T09:48:25;100511.66;;;15.66;33.83
73952;BME280;62304;47.662;18.324;2023-04-03T09:51:30;100508.41;;;16.16;32.67
73952;BME280;62304;47.662;18.324;2023-04-03T09:54:36;100499.16;;;16.26;32.33
73952;BME280;62304;47.662;18.324;2023-04-03T09:57:45;100500.44;;;15.97;31.94
73952;BME280;62304;47.662;18.324;2023-04-03T10:00:55;100508.84;;;15.48;32.46
73952;BME280;62304;47.662;18.324;2023-04-03T10:04:18;100490.44;;;15.09;33.89
73952;BME280;62304;47.662;18.324;2023-04-03T10:07:34;100489.84;;;14.47;33.21
73952;BME280;62304;47.662;18.324;2023-04-03T10:10:41;100489.31;;;15.34;32.67
73952;BME280;62304;47.662;18.324;2023-04-03T10:13:57;100478.84;;;15.10;32.46
73952;BME280;62304;47.662;18.324;2023-04-03T10:20:50;100496.03;;;15.26;33.55
73952;BME280;62304;47.662;18.324;2023-04-03T10:27:12;100489.97;;;16.22;30.81
73952;BME280;62304;47.662;18.324;2023-04-03T10:46:52;100459.41;;;16.70;29.87
73952;BME280;62304;47.662;18.324;2023-04-03T10:50:00;100478.03;;;16.04;30.51
73952;BME280;62304;47.662;18.324;2023-04-03T10:53:32;100473.69;;;16.89;30.02
73952;BME280;62304;47.662;18.324;2023-04-03T10:57:03;100466.41;;;17.97;28.48
73952;BME280;62304;47.662;18.324;2023-04-03T11:00:45;100472.41;;;16.18;30.74
73952;BME280;62304;47.662;18.324;2023-04-03T11:03:53;100478.72;;;14.54;32.32
73952;BME280;62304;47.662;18.324;2023-04-03T11:07:08;100476.44;;;13.99;33.84
73952;BME280;62304;47.662;18.324;2023-04-03T11:10:41;100479.25;;;13.01;35.04
73952;BME280;62304;47.662;18.324;2023-04-03T11:14:09;100477.34;;;12.39;35.99
73952;BME280;62304;47.662;18.324;2023-04-03T11:23:39;100479.53;;;12.23;36.61
73952;BME280;62304;47.662;18.324;2023-04-03T11:26:51;100490.22;;;11.66;37.98
73952;BME280;62304;47.662;18.324;2023-04-03T11:29:57;100477.84;;;11.37;38.25
73952;BME280;62304;47.662;18.324;2023-04-03T11:39:49;100480.59;;;11.60;37.91
73952;BME280;62304;47.662;18.324;2023-04-03T11:43:05;100477.31;;;11.54;38.24
73952;BME280;62304;47.662;18.324;2023-04-03T11:46:08;100469.25;;;11.98;37.72
73952;BME280;62304;47.662;18.324;2023-04-03T11:59:37;100485.19;;;11.26;39.01
73952;BME280;62304;47.662;18.324;2023-04-03T12:02:40;100476.53;;;10.86;39.43
73952;BME280;62304;47.662;18.324;2023-04-03T12:09:28;100472.28;;;10.70;40.22
73952;BME280;62304;47.662;18.324;2023-04-03T12:12:39;100460.34;;;10.88;39.83
73952;BME280;62304;47.662;18.324;2023-04-03T12:15:51;100471.16;;;10.74;39.98
73952;BME280;62304;47.662;18.324;2023-04-03T12:19:01;100458.13;;;10.75;40.09
73952;BME280;62304;47.662;18.324;2023-04-03T12:22:11;100449.44;;;10.57;40.80
73952;BME280;62304;47.662;18.324;2023-04-03T12:25:48;100444.53;;;10.28;40.12
73952;BME280;62304;47.662;18.324;2023-04-03T12:28:54;100446.78;;;10.42;40.44
73952;BME280;62304;47.662;18.324;2023-04-03T12:48:24;100458.13;;;9.99;41.46
73952;BME280;62304;47.662;18.324;2023-04-03T12:51:38;100460.50;;;9.81;41.85
73952;BME280;62304;47.662;18.324;2023-04-03T12:54:42;100450.06;;;10.09;41.46
73952;BME280;62304;47.662;18.324;2023-04-03T12:57:49;100457.16;;;9.91;41.08
73952;BME280;62304;47.662;18.324;2023-04-03T13:01:10;100465.19;;;9.96;41.68
73952;BME280;62304;47.662;18.324;2023-04-03T13:04:14;100465.81;;;9.71;41.56
73952;BME280;62304;47.662;18.324;2023-04-03T13:07:32;100458.19;;;9.83;41.39
73952;BME280;62304;47.662;18.324;2023-04-03T13:11:06;100464.41;;;9.61;41.45
73952;BME280;62304;47.662;18.324;2023-04-03T13:14:30;100451.34;;;9.62;41.37
73952;BME280;62304;47.662;18.324;2023-04-03T13:17:38;100442.78;;;9.67;41.75
73952;BME280;62304;47.662;18.324;2023-04-03T13:20:42;100447.53;;;9.85;41.44
73952;BME280;62304;47.662;18.324;2023-04-03T13:23:48;100448.16;;;9.94;40.89
73952;BME280;62304;47.662;18.324;2023-04-03T13:26:55;100454.53;;;9.79;41.08
73952;BME280;62304;47.662;18.324;2023-04-03T13:30:02;100441.94;;;9.47;40.79
73952;BME280;62304;47.662;18.324;2023-04-03T13:33:20;100455.34;;;9.14;41.62
73952;BME280;62304;47.662;18.324;2023-04-03T13:36:29;100459.38;;;9.17;41.79
73952;BME280;62304;47.662;18.324;2023-04-03T13:39:36;100459.53;;;9.39;41.45
73952;BME280;62304;47.662;18.324;2023-04-03T13:42:41;100456.50;;;9.44;42.24
73952;BME280;62304;47.662;18.324;2023-04-03T13:45:55;100453.13;;;9.70;41.26
73952;BME280;62304;47.662;18.324;2023-04-03T13:49:39;100456.88;;;9.96;39.61
73952;BME280;62304;47.662;18.324;2023-04-03T13:59:22;100441.56;;;10.02;39.50
73952;BME280;62304;47.662;18.324;2023-04-03T14:02:33;100453.44;;;10.18;38.93
73952;BME280;62304;47.662;18.324;2023-04-03T14:05:37;100442.03;;;10.42;38.53
73952;BME280;62304;47.662;18.324;2023-04-03T14:08:40;100443.72;;;10.69;38.12
73952;BME280;62304;47.662;18.324;2023-04-03T14:11:47;100442.09;;;10.46;38.48
73952;BME280;62304;47.662;18.324;2023-04-03T14:14:50;100451.63;;;10.48;38.54
73952;BME280;62304;47.662;18.324;2023-04-03T14:17:54;100440.28;;;10.76;38.08
73952;BME280;62304;47.662;18.324;2023-04-03T14:20:58;100450.34;;;10.42;37.95
73952;BME280;62304;47.662;18.324;2023-04-03T14:24:01;100438.41;;;10.38;38.19
73952;BME280;62304;47.662;18.324;2023-04-03T14:27:14;100453.94;;;10.43;38.12
73952;BME280;62304;47.662;18.324;2023-04-03T14:30:24;100452.34;;;10.04;39.11
73952;BME280;62304;47.662;18.324;2023-04-03T14:33:27;100454.81;;;9.74;39.12
73952;BME280;62304;47.662;18.324;2023-04-03T14:36:33;100456.19;;;9.65;38.82
73952;BME280;62304;47.662;18.324;2023-04-03T14:39:37;100447.81;;;9.61;38.64
73952;BME280;62304;47.662;18.324;2023-04-03T14:42:40;100448.38;;;9.70;38.48
73952;BME280;62304;47.662;18.324;2023-04-03T14:45:43;100444.97;;;9.96;37.70
73952;BME280;62304;47.662;18.324;2023-04-03T14:48:46;100458.38;;;10.28;37.41
73952;BME280;62304;47.662;18.324;2023-04-03T14:51:49;100464.09;;;10.77;36.83
73952;BME280;62304;47.662;18.324;2023-04-03T14:54:54;100464.88;;;9.82;37.51
73952;BME280;62304;47.662;18.324;2023-04-03T14:57:57;100464.66;;;9.72;37.45
73952;BME280;62304;47.662;18.324;2023-04-03T15:01:00;100464.59;;;9.87;36.90
73952;BME280;62304;47.662;18.324;2023-04-03T15:04:10;100460.16;;;9.83;37.23
73952;BME280;62304;47.662;18.324;2023-04-03T15:07:14;100463.56;;;9.76;37.29
73952;BME280;62304;47.662;18.324;2023-04-03T15:10:24;100465.75;;;9.52;37.29
73952;BME280;62304;47.662;18.324;2023-04-03T15:13:29;100452.88;;;9.25;37.42
73952;BME280;62304;47.662;18.324;2023-04-03T15:16:32;100449.91;;;9.18;37.84
73952;BME280;62304;47.662;18.324;2023-04-03T15:19:37;100444.06;;;9.38;37.84
73952;BME280;62304;47.662;18.324;2023-04-03T15:22:40;100445.91;;;9.31;37.20
73952;BME280;62304;47.662;18.324;2023-04-03T15:25:45;100456.72;;;9.05;37.02
73952;BME280;62304;47.662;18.324;2023-04-03T15:28:48;100450.44;;;8.92;37.27
73952;BME280;62304;47.662;18.324;2023-04-03T15:31:52;100451.88;;;8.86;37.13
73952;BME280;62304;47.662;18.324;2023-04-03T15:34:56;100445.81;;;8.81;37.39
73952;BME280;62304;47.662;18.324;2023-04-03T15:37:59;100449.72;;;8.64;37.54
73952;BME280;62304;47.662;18.324;2023-04-03T15:41:02;100450.22;;;8.54;37.44
73952;BME280;62304;47.662;18.324;2023-04-03T15:44:04;100452.00;;;8.47;37.50
73952;BME280;62304;47.662;18.324;2023-04-03T15:47:07;100454.28;;;8.29;37.39
73952;BME280;62304;47.662;18.324;2023-04-03T15:50:10;100450.97;;;8.24;37.52
73952;BME280;62304;47.662;18.324;2023-04-03T15:53:13;100457.66;;;8.23;37.75
73952;BME280;62304;47.662;18.324;2023-04-03T15:56:17;100459.81;;;8.29;37.77
73952;BME280;62304;47.662;18.324;2023-04-03T15:59:20;100456.12;;;8.25;37.74
73952;BME280;62304;47.662;18.324;2023-04-03T16:02:23;100455.84;;;8.03;37.69
73952;BME280;62304;47.662;18.324;2023-04-03T16:05:26;100452.50;;;8.09;38.17
73952;BME280;62304;47.662;18.324;2023-04-03T16:08:29;100466.66;;;8.08;38.24
73952;BME280;62304;47.662;18.324;2023-04-03T16:11:33;100451.19;;;7.91;38.18
73952;BME280;62304;47.662;18.324;2023-04-03T16:14:37;100446.59;;;7.83;38.06
73952;BME280;62304;47.662;18.324;2023-04-03T16:17:40;100444.88;;;7.79;37.99
73952;BME280;62304;47.662;18.324;2023-04-03T16:20:43;100457.22;;;7.69;37.86
73952;BME280;62304;47.662;18.324;2023-04-03T16:23:46;100463.87;;;7.56;38.30
73952;BME280;62304;47.662;18.324;2023-04-03T16:26:49;100465.97;;;7.59;38.46
73952;BME280;62304;47.662;18.324;2023-04-03T16:29:52;100466.19;;;7.54;38.65
73952;BME280;62304;47.662;18.324;2023-04-03T16:32:56;100470.59;;;7.43;38.83
73952;BME280;62304;47.662;18.324;2023-04-03T16:35:59;100481.84;;;7.38;38.94
73952;BME280;62304;47.662;18.324;2023-04-03T16:39:02;100488.97;;;7.27;39.21
73952;BME280;62304;47.662;18.324;2023-04-03T16:42:06;100496.69;;;7.22;39.45
73952;BME280;62304;47.662;18.324;2023-04-03T16:45:09;100505.06;;;7.13;39.62
73952;BME280;62304;47.662;18.324;2023-04-03T16:48:15;100512.63;;;7.04;39.93
73952;BME280;62304;47.662;18.324;2023-04-03T16:51:18;100513.69;;;7.00;40.21
73952;BME280;62304;47.662;18.324;2023-04-03T16:54:23;100499.78;;;6.96;40.15
73952;BME280;62304;47.662;18.324;2023-04-03T16:57:26;100506.38;;;6.83;40.71
73952;BME280;62304;47.662;18.324;2023-04-03T17:00:32;100518.13;;;6.80;41.41
73952;BME280;62304;47.662;18.324;2023-04-03T17:03:38;100517.84;;;6.73;40.98
73952;BME280;62304;47.662;18.324;2023-04-03T17:06:46;100525.88;;;6.66;41.16
73952;BME280;62304;47.662;18.324;2023-04-03T17:09:49;100530.00;;;6.60;41.44
73952;BME280;62304;47.662;18.324;2023-04-03T17:12:52;100529.47;;;6.46;41.69
73952;BME280;62304;47.662;18.324;2023-04-03T17:15:58;100531.75;;;6.44;41.88
73952;BME280;62304;47.662;18.324;2023-04-03T17:19:02;100530.69;;;6.37;42.14
73952;BME280;62304;47.662;18.324;2023-04-03T17:22:07;100528.53;;;6.22;42.39
73952;BME280;62304;47.662;18.324;2023-04-03T17:25:12;100538.50;;;6.14;42.67
73952;BME280;62304;47.662;18.324;2023-04-03T17:28:16;100535.47;;;6.07;43.00
73952;BME280;62304;47.662;18.324;2023-04-03T17:31:20;100526.56;;;5.90;43.36
73952;BME280;62304;47.662;18.324;2023-04-03T17:34:23;100550.31;;;5.94;43.54
73952;BME280;62304;47.662;18.324;2023-04-03T17:37:26;100547.88;;;5.93;43.44